createdAt,value
2023-03-19T00:01:49.735Z,6.95
2023-03-19T00:04:17.254Z,6.80
2023-03-19T00:06:44.192Z,6.35
2023-03-19T00:09:11.296Z,6.43
2023-03-19T00:11:38.212Z,5.95
2023-03-19T00:14:04.682Z,6.85
2023-03-19T00:16:31.210Z,6.15
2023-03-19T00:18:57.726Z,5.93
2023-03-19T00:21:25.937Z,5.93
2023-03-19T00:23:52.612Z,6.60
2023-03-19T00:26:19.270Z,6.78
2023-03-19T00:28:46.010Z,6.90
2023-03-19T00:31:15.242Z,7.18
2023-03-19T00:33:42.782Z,7.57
2023-03-19T00:36:10.404Z,7.35
2023-03-19T00:38:36.970Z,7.80
2023-03-19T00:41:05.233Z,7.47
2023-03-19T00:43:31.977Z,7.97
2023-03-19T00:45:58.554Z,7.32
2023-03-19T00:48:25.147Z,7.55
2023-03-19T00:50:51.822Z,7.45
2023-03-19T00:53:18.768Z,8.10
2023-03-19T00:55:45.339Z,7.30
2023-03-19T00:58:11.948Z,7.53
2023-03-19T01:00:38.909Z,8.30
2023-03-19T01:03:06.488Z,7.78
2023-03-19T01:05:35.394Z,8.32
2023-03-19T01:08:02.704Z,8.10
2023-03-19T01:10:30.076Z,8.15
2023-03-19T01:12:56.919Z,8.23
2023-03-19T01:15:23.422Z,7.85
2023-03-19T01:17:50.079Z,7.53
2023-03-19T01:20:18.992Z,7.43
2023-03-19T01:22:46.191Z,7.93
2023-03-19T01:25:13.956Z,7.25
2023-03-19T01:27:47.575Z,7.63
2023-03-19T01:30:15.291Z,6.88
2023-03-19T01:33:11.141Z,6.15
2023-03-19T01:35:51.858Z,6.45
2023-03-19T01:38:21.242Z,6.63
2023-03-19T01:40:48.914Z,6.43
2023-03-19T01:43:21.671Z,5.90
2023-03-19T01:46:30.775Z,6.85
2023-03-19T01:49:24.230Z,6.25
2023-03-19T01:52:02.971Z,6.43
2023-03-19T01:54:34.032Z,6.38
2023-03-19T01:57:38.678Z,6.45
2023-03-19T02:00:29.154Z,6.55
2023-03-19T02:03:00.203Z,6.22
2023-03-19T02:05:51.132Z,6.00
2023-03-19T02:08:22.813Z,6.82
2023-03-19T02:10:50.520Z,6.38
2023-03-19T02:13:17.103Z,6.45
2023-03-19T02:15:43.866Z,6.88
2023-03-19T02:18:10.580Z,6.10
2023-03-19T02:20:59.080Z,6.47
2023-03-19T02:23:42.328Z,6.30
2023-03-19T02:26:15.563Z,6.95
2023-03-19T02:28:44.990Z,6.88
2023-03-19T02:31:14.644Z,6.40
2023-03-19T02:33:41.328Z,6.78
2023-03-19T02:36:11.274Z,6.70
2023-03-19T02:38:38.632Z,6.65
2023-03-19T02:41:07.371Z,6.53
2023-03-19T02:43:35.995Z,7.22
2023-03-19T02:46:04.573Z,6.30
2023-03-19T02:48:32.416Z,6.28
2023-03-19T02:50:59.146Z,6.43
2023-03-19T02:53:25.696Z,7.50
2023-03-19T02:55:52.163Z,7.40
2023-03-19T02:58:19.070Z,7.25
2023-03-19T03:00:46.316Z,7.25
2023-03-19T03:03:13.062Z,7.55
2023-03-19T03:05:39.550Z,7.22
2023-03-19T03:08:06.817Z,8.73
2023-03-19T03:10:33.832Z,8.93
2023-03-19T03:13:01.216Z,9.75
2023-03-19T03:15:28.057Z,9.05
2023-03-19T03:17:56.381Z,8.77
2023-03-19T03:20:23.046Z,9.35
2023-03-19T03:22:49.740Z,9.43
2023-03-19T03:25:16.332Z,9.60
2023-03-19T03:27:43.128Z,9.77
2023-03-19T03:30:12.077Z,9.20
2023-03-19T03:32:39.282Z,9.20
2023-03-19T03:35:06.962Z,9.95
2023-03-19T03:37:33.458Z,10.23
2023-03-19T03:40:00.248Z,10.20
2023-03-19T03:42:28.069Z,10.00
2023-03-19T03:44:54.538Z,10.75
2023-03-19T03:47:21.382Z,10.13
2023-03-19T03:49:47.940Z,9.50
2023-03-19T03:52:14.488Z,9.80
2023-03-19T03:54:40.961Z,10.10
2023-03-19T03:57:08.092Z,9.60
2023-03-19T03:59:34.736Z,10.35
2023-03-19T04:02:01.617Z,10.82
2023-03-19T04:04:28.241Z,9.93
2023-03-19T04:06:54.718Z,10.15
2023-03-19T04:09:30.179Z,10.38
2023-03-19T04:11:56.675Z,10.32
2023-03-19T04:14:23.235Z,10.23
2023-03-19T04:16:49.850Z,9.25
2023-03-19T04:19:16.955Z,10.02
2023-03-19T04:21:44.986Z,10.18
2023-03-19T04:24:11.598Z,11.07
2023-03-19T04:26:39.116Z,10.00
2023-03-19T04:29:06.322Z,9.80
2023-03-19T04:31:33.226Z,10.75
2023-03-19T04:34:00.302Z,10.57
2023-03-19T04:36:27.017Z,10.05
2023-03-19T04:38:53.664Z,10.18
2023-03-19T04:41:20.711Z,10.48
2023-03-19T04:44:01.195Z,10.00
2023-03-19T04:46:29.092Z,10.70
2023-03-19T04:48:56.067Z,9.65
2023-03-19T04:51:23.292Z,10.35
2023-03-19T04:53:49.768Z,10.25
2023-03-19T04:56:16.503Z,9.48
2023-03-19T04:58:44.197Z,10.48
2023-03-19T05:01:10.991Z,10.35
2023-03-19T05:04:12.885Z,10.65
2023-03-19T05:06:39.624Z,10.45
2023-03-19T05:09:07.740Z,10.52
2023-03-19T05:11:34.252Z,11.27
2023-03-19T05:14:08.701Z,10.73
2023-03-19T05:16:54.278Z,11.35
2023-03-19T05:19:21.008Z,10.20
2023-03-19T05:21:47.526Z,9.57
2023-03-19T05:24:17.758Z,8.73
2023-03-19T05:26:44.576Z,8.13
2023-03-19T05:29:14.685Z,8.95
2023-03-19T05:31:56.304Z,8.77
2023-03-19T05:34:23.498Z,8.18
2023-03-19T05:36:50.432Z,8.75
2023-03-19T05:39:19.506Z,8.07
2023-03-19T05:41:46.142Z,8.80
2023-03-19T05:44:17.937Z,7.50
2023-03-19T05:47:02.771Z,8.32
2023-03-19T05:49:32.954Z,8.13
2023-03-19T05:51:59.492Z,8.02
2023-03-19T05:54:26.086Z,8.48
2023-03-19T05:56:58.850Z,8.55
2023-03-19T05:59:44.125Z,8.07
2023-03-19T06:05:11.200Z,8.18
2023-03-19T06:07:38.418Z,8.38
2023-03-19T06:10:11.606Z,8.45
2023-03-19T06:12:38.245Z,8.73
2023-03-19T06:15:23.268Z,8.35
2023-03-19T06:18:06.086Z,8.10
2023-03-19T06:20:32.975Z,8.25
2023-03-19T06:22:59.673Z,8.60
2023-03-19T06:25:27.007Z,8.52
2023-03-19T06:27:53.557Z,8.93
2023-03-19T06:30:33.825Z,8.27
2023-03-19T06:33:03.905Z,8.63
2023-03-19T06:35:32.176Z,7.88
2023-03-19T06:37:58.878Z,8.65
2023-03-19T06:40:25.303Z,8.65
2023-03-19T06:42:52.313Z,7.80
2023-03-19T06:45:19.376Z,8.02
2023-03-19T06:47:47.319Z,8.45
2023-03-19T06:50:16.328Z,7.72
2023-03-19T06:52:42.880Z,8.23
2023-03-19T06:55:09.621Z,8.48
2023-03-19T06:57:36.329Z,8.07
2023-03-19T07:00:04.886Z,8.10
2023-03-19T07:02:31.674Z,7.93
2023-03-19T07:04:58.190Z,8.10
2023-03-19T07:07:24.708Z,7.60
2023-03-19T07:09:51.343Z,8.15
2023-03-19T07:12:17.838Z,5.75
2023-03-19T07:14:44.372Z,6.53
2023-03-19T07:17:10.976Z,6.45
2023-03-19T07:19:37.490Z,6.63
2023-03-19T07:22:03.988Z,6.55
2023-03-19T07:24:30.584Z,6.93
2023-03-19T07:26:57.282Z,7.43
2023-03-19T07:29:23.748Z,7.90
2023-03-19T07:31:50.444Z,7.43
2023-03-19T07:34:16.933Z,7.90
2023-03-19T07:36:43.657Z,8.15
2023-03-19T07:39:10.231Z,7.45
2023-03-19T07:41:36.990Z,7.50
2023-03-19T07:44:03.534Z,7.35
2023-03-19T07:46:30.125Z,7.25
2023-03-19T07:48:56.605Z,7.35
2023-03-19T07:51:23.157Z,7.82
2023-03-19T07:53:49.649Z,7.68
2023-03-19T07:56:16.288Z,7.43
2023-03-19T07:58:42.885Z,6.82
2023-03-19T08:01:09.441Z,7.32
2023-03-19T08:03:36.087Z,7.05
2023-03-19T08:06:03.932Z,7.43
2023-03-19T08:08:30.570Z,7.03
2023-03-19T08:10:57.567Z,7.25
2023-03-19T08:13:24.006Z,6.70
2023-03-19T08:15:51.243Z,6.60
2023-03-19T08:18:17.909Z,7.28
2023-03-19T08:20:45.588Z,6.97
2023-03-19T08:23:12.187Z,6.45
2023-03-19T08:25:39.118Z,5.85
2023-03-19T08:28:05.872Z,6.10
2023-03-19T08:30:33.014Z,5.45
2023-03-19T08:32:59.743Z,6.88
2023-03-19T08:35:27.070Z,5.97
2023-03-19T08:37:54.594Z,6.20
2023-03-19T08:40:21.293Z,5.80
2023-03-19T08:42:47.813Z,6.38
2023-03-19T08:45:15.359Z,5.32
2023-03-19T08:47:42.731Z,5.57
2023-03-19T08:50:10.628Z,4.85
2023-03-19T08:52:37.294Z,5.15
2023-03-19T08:55:04.035Z,5.10
2023-03-19T08:57:31.543Z,5.28
2023-03-19T08:59:58.169Z,5.80
2023-03-19T09:02:24.659Z,5.63
2023-03-19T09:04:51.181Z,5.50
2023-03-19T09:07:18.067Z,5.38
2023-03-19T09:09:45.744Z,5.63
2023-03-19T09:12:15.241Z,6.20
2023-03-19T09:14:41.802Z,5.60
2023-03-19T09:17:08.369Z,6.28
2023-03-19T09:19:35.276Z,6.60
2023-03-19T09:22:01.841Z,5.82
2023-03-19T09:24:28.378Z,5.53
2023-03-19T09:26:54.969Z,6.45
2023-03-19T09:29:21.456Z,6.03
2023-03-19T09:31:47.955Z,6.38
2023-03-19T09:34:14.446Z,5.80
2023-03-19T09:36:41.244Z,5.90
2023-03-19T09:39:08.375Z,6.00
2023-03-19T09:42:03.656Z,5.97
2023-03-19T09:44:33.684Z,5.32
2023-03-19T09:47:08.501Z,6.15
2023-03-19T09:49:40.031Z,5.68
2023-03-19T09:52:34.824Z,6.13
2023-03-19T09:55:06.541Z,6.30
2023-03-19T09:57:34.118Z,6.80
2023-03-19T10:00:01.319Z,6.63
2023-03-19T10:02:41.721Z,6.82
2023-03-19T10:05:17.959Z,6.57
2023-03-19T10:07:59.505Z,6.70
2023-03-19T10:10:51.907Z,6.55
2023-03-19T10:13:29.970Z,6.32
2023-03-19T10:15:57.036Z,6.63
2023-03-19T10:18:28.966Z,7.15
2023-03-19T10:20:58.889Z,5.88
2023-03-19T10:23:42.458Z,5.57
2023-03-19T10:26:21.527Z,5.38
2023-03-19T10:29:17.198Z,5.10
2023-03-19T10:31:52.519Z,4.53
2023-03-19T10:34:26.140Z,4.07
2023-03-19T10:39:25.378Z,3.58
2023-03-19T10:41:57.774Z,3.72
2023-03-19T10:44:31.312Z,3.17
2023-03-19T10:49:36.934Z,3.28
2023-03-19T10:52:03.946Z,3.30
2023-03-19T10:54:30.913Z,3.20
2023-03-19T10:57:01.366Z,3.17
2023-03-19T10:59:30.700Z,3.83
2023-03-19T11:02:16.129Z,3.47
2023-03-19T11:04:42.690Z,3.55
2023-03-19T11:07:13.149Z,3.90
2023-03-19T11:09:46.310Z,3.47
2023-03-19T11:12:31.432Z,3.30
2023-03-19T11:14:58.208Z,3.28
2023-03-19T11:17:36.136Z,3.25
2023-03-19T11:20:22.024Z,3.70
2023-03-19T11:22:49.452Z,3.95
2023-03-19T11:25:19.617Z,3.78
2023-03-19T11:28:02.161Z,3.45
2023-03-19T11:30:37.184Z,3.50
2023-03-19T11:33:10.862Z,3.53
2023-03-19T11:35:56.957Z,4.07
2023-03-19T11:38:30.739Z,4.10
2023-03-19T11:43:47.983Z,4.00
2023-03-19T11:46:30.057Z,4.28
2023-03-19T11:49:09.891Z,4.47
2023-03-19T11:52:01.751Z,5.45
2023-03-19T11:54:34.350Z,4.72
2023-03-19T11:57:04.548Z,4.13
2023-03-19T11:59:43.077Z,4.25
2023-03-19T12:02:48.412Z,4.85
2023-03-19T12:05:34.082Z,3.97
2023-03-19T12:08:22.493Z,4.00
2023-03-19T12:11:03.239Z,3.97
2023-03-19T12:13:53.511Z,3.50
2023-03-19T12:16:33.070Z,3.75
2023-03-19T12:19:38.184Z,3.67
2023-03-19T12:22:32.757Z,3.78
2023-03-19T12:28:11.408Z,3.80
2023-03-19T12:31:03.757Z,3.60
2023-03-19T12:33:36.318Z,3.67
2023-03-19T12:36:05.592Z,4.18
2023-03-19T12:38:48.515Z,3.60
2023-03-19T12:41:36.396Z,4.72
2023-03-19T12:44:12.255Z,3.97
2023-03-19T12:46:42.398Z,3.67
2023-03-19T12:49:21.552Z,3.83
2023-03-19T12:51:53.197Z,3.67
2023-03-19T12:54:22.091Z,3.53
2023-03-19T12:57:04.433Z,4.15
2023-03-19T12:59:39.989Z,4.35
2023-03-19T13:02:16.208Z,3.47
2023-03-19T13:04:57.404Z,3.83
2023-03-19T13:08:00.325Z,3.80
2023-03-19T13:10:26.974Z,3.47
2023-03-19T13:12:53.925Z,3.88
2023-03-19T13:15:37.373Z,4.38
2023-03-19T13:18:37.122Z,3.70
2023-03-19T13:21:23.537Z,3.40
2023-03-19T13:24:01.607Z,3.33
2023-03-19T13:26:28.267Z,3.10
2023-03-19T13:29:00.192Z,3.20
2023-03-19T13:31:27.388Z,3.58
2023-03-19T13:34:04.269Z,3.22
2023-03-19T13:36:35.146Z,3.50
2023-03-19T13:39:03.019Z,2.40
2023-03-19T13:41:32.642Z,2.60
2023-03-19T13:43:59.985Z,2.40
2023-03-19T13:46:31.016Z,2.20
2023-03-19T13:49:22.344Z,2.05
2023-03-19T13:51:49.164Z,2.45
2023-03-19T13:54:20.086Z,2.40
2023-03-19T13:57:00.900Z,2.83
2023-03-19T13:59:29.712Z,2.65
2023-03-19T14:01:57.118Z,2.40
2023-03-19T14:04:35.175Z,2.33
2023-03-19T14:07:15.957Z,2.35
2023-03-19T14:09:57.596Z,2.40
2023-03-19T14:12:29.309Z,2.53
2023-03-19T14:15:07.265Z,2.47
2023-03-19T14:17:41.973Z,2.47
2023-03-19T14:20:12.850Z,2.70
2023-03-19T14:22:58.424Z,2.42
2023-03-19T14:25:27.461Z,3.28
2023-03-19T14:28:00.986Z,2.60
2023-03-19T14:30:31.840Z,2.65
2023-03-19T14:33:01.203Z,2.25
2023-03-19T14:35:28.286Z,2.65
2023-03-19T14:37:56.133Z,2.00
2023-03-19T14:40:47.341Z,2.50
2023-03-19T14:43:20.657Z,2.42
2023-03-19T14:46:19.093Z,2.63
2023-03-19T14:49:10.532Z,2.38
2023-03-19T14:52:02.349Z,2.20
2023-03-19T14:54:45.065Z,2.45
2023-03-19T14:57:26.213Z,2.70
2023-03-19T14:59:53.957Z,2.17
2023-03-19T15:02:27.996Z,2.72
2023-03-19T15:04:55.160Z,2.85
2023-03-19T15:07:28.246Z,2.55
2023-03-19T15:09:55.789Z,2.40
2023-03-19T15:12:33.729Z,2.55
2023-03-19T15:15:21.211Z,3.13
2023-03-19T15:18:02.926Z,2.75
2023-03-19T15:20:35.514Z,5.07
2023-03-19T15:23:07.173Z,4.93
2023-03-19T15:25:58.062Z,3.75
2023-03-19T15:28:26.408Z,5.30
2023-03-19T15:31:05.732Z,4.07
2023-03-19T15:33:42.716Z,5.32
2023-03-19T15:36:30.029Z,4.50
2023-03-19T15:39:05.921Z,3.03
2023-03-19T15:41:34.944Z,3.38
2023-03-19T15:44:05.164Z,3.38
2023-03-19T15:46:33.936Z,4.88
2023-03-19T15:49:10.316Z,8.00
2023-03-19T15:51:36.974Z,5.03
2023-03-19T15:54:03.935Z,5.60
2023-03-19T15:56:32.059Z,7.85
2023-03-19T15:58:59.516Z,6.97
2023-03-19T16:01:26.666Z,7.50
2023-03-19T16:04:03.994Z,5.63
2023-03-19T16:06:39.429Z,2.60
2023-03-19T16:09:30.249Z,1.70
2023-03-19T16:11:57.103Z,5.57
2023-03-19T16:14:39.647Z,5.43
2023-03-19T16:17:14.756Z,6.30
2023-03-19T16:19:50.348Z,8.32
2023-03-19T16:22:20.483Z,5.55
2023-03-19T16:24:47.538Z,13.32
2023-03-19T16:27:19.143Z,8.52
2023-03-19T16:29:47.746Z,3.60
2023-03-19T16:32:22.184Z,3.95
2023-03-19T16:34:51.818Z,6.70
2023-03-19T16:37:37.289Z,11.40
2023-03-19T16:40:12.908Z,8.52
2023-03-19T16:42:42.984Z,11.05
2023-03-19T16:45:15.989Z,6.95
2023-03-19T16:47:43.378Z,5.13
2023-03-19T16:50:10.863Z,4.47
2023-03-19T16:52:39.311Z,4.72
2023-03-19T16:55:16.903Z,5.35
2023-03-19T16:57:43.717Z,4.80
2023-03-19T17:00:13.366Z,4.57
2023-03-19T17:02:39.853Z,5.95
2023-03-19T17:05:13.981Z,5.90
2023-03-19T17:07:41.975Z,6.50
2023-03-19T17:10:19.275Z,5.72
2023-03-19T17:12:47.959Z,4.60
2023-03-19T17:15:37.405Z,4.63
2023-03-19T17:18:13.287Z,4.63
2023-03-19T17:20:47.951Z,4.18
2023-03-19T17:23:14.471Z,4.57
2023-03-19T17:25:41.036Z,4.32
2023-03-19T17:28:07.511Z,5.13
2023-03-19T17:30:34.455Z,4.70
2023-03-19T17:33:01.256Z,4.97
2023-03-19T17:35:27.840Z,5.47
2023-03-19T17:37:54.969Z,4.72
2023-03-19T17:40:23.836Z,5.07
2023-03-19T17:42:51.030Z,5.30
2023-03-19T17:45:19.509Z,9.60
2023-03-19T17:47:50.409Z,6.97
2023-03-19T17:50:28.488Z,6.75
2023-03-19T17:52:55.108Z,6.15
2023-03-19T17:55:23.888Z,7.88
2023-03-19T17:57:51.308Z,4.95
2023-03-19T18:00:20.111Z,3.20
2023-03-19T18:02:47.654Z,3.38
2023-03-19T18:05:16.988Z,3.30
2023-03-19T18:07:48.138Z,6.70
2023-03-19T18:10:16.406Z,5.70
2023-03-19T18:12:43.992Z,4.20
2023-03-19T18:15:11.725Z,2.60
2023-03-19T18:17:38.511Z,1.65
2023-03-19T18:20:06.140Z,7.20
2023-03-19T18:22:32.796Z,7.97
2023-03-19T18:24:59.524Z,9.95
2023-03-19T18:27:26.003Z,2.58
2023-03-19T18:29:52.575Z,6.07
2023-03-19T18:32:25.584Z,2.40
2023-03-19T18:34:52.113Z,2.40
2023-03-19T18:37:18.628Z,2.13
2023-03-19T18:39:45.160Z,2.28
2023-03-19T18:42:12.623Z,2.00
2023-03-19T18:44:39.136Z,2.70
2023-03-19T18:47:06.078Z,3.03
2023-03-19T18:49:32.696Z,2.33
2023-03-19T18:52:03.169Z,2.08
2023-03-19T18:54:34.671Z,1.60
2023-03-19T18:57:01.509Z,2.25
2023-03-19T18:59:33.218Z,1.95
2023-03-19T19:02:20.286Z,1.65
2023-03-19T19:04:46.834Z,1.77
2023-03-19T19:07:14.967Z,1.75
2023-03-19T19:09:41.432Z,1.23
2023-03-19T19:12:09.420Z,1.55
2023-03-19T19:14:36.060Z,1.88
2023-03-19T19:17:03.143Z,2.10
2023-03-19T19:19:29.674Z,1.80
2023-03-19T19:21:56.225Z,2.28
2023-03-19T19:24:22.795Z,2.22
2023-03-19T19:26:53.284Z,7.78
2023-03-19T19:29:28.392Z,4.00
2023-03-19T19:31:55.336Z,11.10
2023-03-19T19:34:23.080Z,4.30
2023-03-19T19:36:50.913Z,3.80
2023-03-19T19:39:17.840Z,4.38
2023-03-19T19:41:44.358Z,4.20
2023-03-19T19:44:17.843Z,3.28
2023-03-19T19:46:44.483Z,2.67
2023-03-19T19:49:15.038Z,3.20
2023-03-19T19:51:41.504Z,2.80
2023-03-19T19:54:07.976Z,2.58
2023-03-19T19:56:34.498Z,2.50
2023-03-19T19:59:01.143Z,2.25
2023-03-19T20:01:27.660Z,2.25
2023-03-19T20:03:54.369Z,2.30
2023-03-19T20:06:20.885Z,19.42
2023-03-19T20:08:50.509Z,12.65
2023-03-19T20:11:21.613Z,15.45
2023-03-19T20:13:51.978Z,2.25
2023-03-19T20:16:19.621Z,1.98
2023-03-19T20:18:47.680Z,1.88
2023-03-19T20:21:15.688Z,2.15
2023-03-19T20:23:43.974Z,33.53
2023-03-19T20:26:13.153Z,27.35
2023-03-19T20:28:39.703Z,27.95
2023-03-19T20:31:06.325Z,20.70
2023-03-19T20:33:34.426Z,13.95
2023-03-19T20:36:01.654Z,6.63
2023-03-19T20:38:29.090Z,2.30
2023-03-19T20:40:56.829Z,1.90
2023-03-19T20:43:28.222Z,2.10
2023-03-19T20:45:56.931Z,2.13
2023-03-19T20:48:24.465Z,2.10
2023-03-19T20:50:52.232Z,2.10
2023-03-19T20:53:19.128Z,2.00
2023-03-19T20:55:45.949Z,2.00
2023-03-19T20:58:34.779Z,1.73
2023-03-19T21:01:02.698Z,1.90
2023-03-19T21:03:30.712Z,1.63
2023-03-19T21:06:26.713Z,1.50
2023-03-19T21:08:57.062Z,1.50
2023-03-19T21:11:28.262Z,1.80
2023-03-19T21:13:54.720Z,1.50
2023-03-19T21:16:26.090Z,1.55
2023-03-19T21:18:53.864Z,1.55
2023-03-19T21:21:29.991Z,1.45
2023-03-19T21:24:10.621Z,1.42
2023-03-19T21:26:38.581Z,1.30
2023-03-19T21:29:07.161Z,1.20
2023-03-19T21:31:34.196Z,1.10
2023-03-19T21:34:01.205Z,1.20
2023-03-19T21:36:27.721Z,1.13
2023-03-19T21:38:54.222Z,1.30
2023-03-19T21:41:28.344Z,2.35
2023-03-19T21:43:57.314Z,2.30
2023-03-19T21:46:26.126Z,2.60
2023-03-19T21:48:54.399Z,3.13
2023-03-19T21:51:21.530Z,3.10
2023-03-19T21:53:48.219Z,2.08
2023-03-19T21:56:32.334Z,2.80
2023-03-19T21:59:00.952Z,2.72
2023-03-19T22:01:27.559Z,2.67
2023-03-19T22:03:55.672Z,4.68
2023-03-19T22:06:22.521Z,2.90
2023-03-19T22:08:49.195Z,2.50
2023-03-19T22:11:23.137Z,2.47
2023-03-19T22:16:24.643Z,3.83
2023-03-19T22:18:52.426Z,4.63
2023-03-19T22:21:21.411Z,3.22
2023-03-19T22:23:48.250Z,3.35
2023-03-19T22:26:29.843Z,3.30
2023-03-19T22:28:58.024Z,6.38
2023-03-19T22:31:24.761Z,4.60
2023-03-19T22:33:51.437Z,5.30
2023-03-19T22:36:17.945Z,4.47
2023-03-19T22:38:45.014Z,5.85
2023-03-19T22:41:18.675Z,4.65
2023-03-19T22:43:46.052Z,3.88
2023-03-19T22:46:15.801Z,3.83
2023-03-19T22:48:47.982Z,4.40
2023-03-19T22:51:19.923Z,4.78
2023-03-19T22:53:46.626Z,3.88
2023-03-19T22:56:14.006Z,3.15
2023-03-19T22:58:40.746Z,3.40
2023-03-19T23:01:23.185Z,4.10
2023-03-19T23:03:50.455Z,4.63
2023-03-19T23:06:29.319Z,4.80
2023-03-19T23:08:57.104Z,6.68
2023-03-19T23:11:24.330Z,5.75
2023-03-19T23:13:50.973Z,6.03
2023-03-19T23:16:21.383Z,5.93
2023-03-19T23:18:49.298Z,7.22
2023-03-19T23:21:17.251Z,6.97
2023-03-19T23:23:43.999Z,5.55
2023-03-19T23:26:30.278Z,5.53
2023-03-19T23:28:58.437Z,6.00
2023-03-19T23:31:24.915Z,5.40
2023-03-19T23:33:51.372Z,6.03
2023-03-19T23:36:18.174Z,5.95
2023-03-19T23:38:44.924Z,6.00
2023-03-19T23:41:21.132Z,5.65
2023-03-19T23:43:47.620Z,5.40
2023-03-19T23:46:14.152Z,6.55
2023-03-19T23:48:40.763Z,5.40
2023-03-19T23:51:11.820Z,6.72
2023-03-19T23:53:38.286Z,5.70
2023-03-19T23:56:10.806Z,6.00
2023-03-19T23:58:41.735Z,5.70
